Terminal Aerodrome Forecast
Issued by NWS Atlanta, GA

Home | Current Version | Previous Version | Text Only | Print | Product List | Glossary On
Versions: 1 2 3 4 5 6 7 8 9 10 11 12 13 14 15 16 17 18 19 20 21 22
000
FTUS42 KFFC 191739
TAFCSG
TAF
KCSG 191739Z 1918/2018 20003KT P6SM BKN120
     FM192000 19007KT P6SM SCT030 BKN120
     FM200300 20006KT 4SM -RA BR OVC015
     FM200600 19010KT 4SM -RA BR OVC004
     FM201000 22006KT 2SM BR OVC004=

USA.gov is the U.S. government's official web portal to all federal, state and local government web resources and services.